createdAt,value
2023-03-28T00:01:59.373Z,94.10
2023-03-28T00:06:02.462Z,94.00
2023-03-28T00:10:06.421Z,93.80
2023-03-28T00:14:08.540Z,93.80
2023-03-28T00:18:11.697Z,93.80
2023-03-28T00:22:14.091Z,93.90
2023-03-28T00:26:15.939Z,94.10
2023-03-28T00:30:17.790Z,93.80
2023-03-28T00:34:20.659Z,93.70
2023-03-28T00:38:22.839Z,93.70
2023-03-28T00:42:24.777Z,94.00
2023-03-28T00:46:39.028Z,94.20
2023-03-28T00:50:47.029Z,94.00
2023-03-28T00:54:49.138Z,93.90
2023-03-28T00:58:53.201Z,94.10
2023-03-28T01:02:58.239Z,94.00
2023-03-28T01:07:00.412Z,94.10
2023-03-28T01:11:03.225Z,94.20
2023-03-28T01:15:05.731Z,94.10
2023-03-28T01:19:51.815Z,94.30
2023-03-28T01:24:24.904Z,94.60
2023-03-28T01:28:35.800Z,94.70
2023-03-28T01:33:02.274Z,94.50
2023-03-28T01:37:19.393Z,94.30
2023-03-28T01:42:01.332Z,94.20
2023-03-28T01:46:15.437Z,94.50
2023-03-28T01:50:34.372Z,94.30
2023-03-28T01:55:05.471Z,94.50
2023-03-28T01:59:29.963Z,94.30
2023-03-28T02:04:20.504Z,94.10
2023-03-28T02:08:37.404Z,93.70
2023-03-28T02:13:24.810Z,93.50
2023-03-28T02:18:14.914Z,93.70
2023-03-28T02:22:38.568Z,93.80
2023-03-28T02:27:00.797Z,94.00
2023-03-28T02:31:11.355Z,94.30
2023-03-28T02:35:14.558Z,94.30
2023-03-28T02:39:19.185Z,93.90
2023-03-28T02:43:46.006Z,93.90
2023-03-28T02:48:32.179Z,93.80
2023-03-28T02:52:52.577Z,93.70
2023-03-28T02:57:10.416Z,93.60
2023-03-28T03:01:18.435Z,93.30
2023-03-28T03:05:21.718Z,93.20
2023-03-28T03:09:23.725Z,93.40
2023-03-28T03:13:25.781Z,93.50
2023-03-28T03:17:28.878Z,93.50
2023-03-28T03:21:31.037Z,93.20
2023-03-28T03:25:34.609Z,93.30
2023-03-28T03:30:07.075Z,93.30
2023-03-28T03:34:27.208Z,92.90
2023-03-28T03:38:32.344Z,93.30
2023-03-28T03:42:36.301Z,93.50
2023-03-28T03:46:39.346Z,93.40
2023-03-28T03:50:41.924Z,93.30
2023-03-28T03:54:50.545Z,93.20
2023-03-28T03:58:53.148Z,93.10
2023-03-28T04:02:57.410Z,93.00
2023-03-28T04:07:02.344Z,93.10
2023-03-28T04:11:05.386Z,93.00
2023-03-28T04:15:12.920Z,92.90
2023-03-28T04:19:15.660Z,92.80
2023-03-28T04:23:18.562Z,92.70
2023-03-28T04:27:21.304Z,92.70
2023-03-28T04:31:29.497Z,92.60
2023-03-28T04:36:02.838Z,93.10
2023-03-28T04:40:12.175Z,93.00
2023-03-28T04:44:21.928Z,92.70
2023-03-28T04:48:31.895Z,92.60
2023-03-28T04:52:34.261Z,92.40
2023-03-28T04:56:36.603Z,92.20
2023-03-28T05:00:39.377Z,93.30
2023-03-28T05:04:42.370Z,92.80
2023-03-28T05:08:45.087Z,92.90
2023-03-28T05:12:47.762Z,92.90
2023-03-28T05:16:51.523Z,92.80
2023-03-28T05:21:21.463Z,92.80
2023-03-28T05:25:26.327Z,93.00
2023-03-28T05:29:30.429Z,92.80
2023-03-28T05:33:32.472Z,92.60
2023-03-28T05:37:35.468Z,92.50
2023-03-28T05:41:37.364Z,92.70
2023-03-28T05:45:39.309Z,92.60
2023-03-28T05:49:47.411Z,92.80
2023-03-28T05:53:49.862Z,92.70
2023-03-28T05:57:52.053Z,92.80
2023-03-28T06:01:55.442Z,92.90
2023-03-28T06:05:57.995Z,92.90
2023-03-28T06:10:03.339Z,93.10
2023-03-28T06:14:06.790Z,93.50
2023-03-28T06:18:09.699Z,93.70
2023-03-28T06:22:18.659Z,93.80
2023-03-28T06:26:25.707Z,94.00
2023-03-28T06:30:27.663Z,94.20
2023-03-28T06:34:30.095Z,94.30
2023-03-28T06:38:36.206Z,94.00
2023-03-28T06:42:39.933Z,93.60
2023-03-28T06:47:08.132Z,94.10
2023-03-28T06:51:11.979Z,93.40
2023-03-28T06:55:14.540Z,93.10
2023-03-28T06:59:16.893Z,93.20
2023-03-28T07:03:23.303Z,93.00
2023-03-28T07:07:25.600Z,92.90
2023-03-28T07:11:27.533Z,92.90
2023-03-28T07:15:29.605Z,93.10
2023-03-28T07:19:32.274Z,93.10
2023-03-28T07:23:34.344Z,93.50
2023-03-28T07:27:36.477Z,93.70
2023-03-28T07:31:38.682Z,93.00
2023-03-28T07:35:41.139Z,93.70
2023-03-28T07:39:47.909Z,93.00
2023-03-28T07:43:52.901Z,92.50
2023-03-28T07:47:54.968Z,92.30
2023-03-28T07:51:57.954Z,92.30
2023-03-28T07:56:00.282Z,91.80
2023-03-28T08:00:13.249Z,93.00
2023-03-28T08:04:15.208Z,92.00
2023-03-28T08:08:30.291Z,91.60
2023-03-28T08:12:54.820Z,91.70
2023-03-28T08:16:56.967Z,91.10
2023-03-28T08:21:01.941Z,91.80
2023-03-28T08:25:07.816Z,91.70
2023-03-28T08:29:11.527Z,92.40
2023-03-28T08:33:14.061Z,91.10
2023-03-28T08:37:16.959Z,90.30
2023-03-28T08:41:57.874Z,90.50
2023-03-28T08:46:01.374Z,91.50
2023-03-28T08:50:15.522Z,89.30
2023-03-28T08:54:31.585Z,89.80
2023-03-28T08:58:42.469Z,89.30
2023-03-28T09:02:44.783Z,89.90
2023-03-28T09:06:53.513Z,88.10
2023-03-28T09:11:03.310Z,85.90
2023-03-28T09:15:24.231Z,86.90
2023-03-28T09:19:49.325Z,88.80
2023-03-28T09:24:26.456Z,86.00
2023-03-28T09:28:52.152Z,84.70
2023-03-28T09:32:58.389Z,85.80
2023-03-28T09:37:12.805Z,82.00
2023-03-28T09:41:25.973Z,83.10
2023-03-28T09:46:03.075Z,83.60
2023-03-28T09:50:12.955Z,82.70
2023-03-28T09:54:28.724Z,81.70
2023-03-28T09:58:50.061Z,82.10
2023-03-28T10:03:02.773Z,82.60
2023-03-28T10:07:11.324Z,80.90
2023-03-28T10:11:23.841Z,77.90
2023-03-28T10:15:41.982Z,77.80
2023-03-28T10:19:49.957Z,79.60
2023-03-28T10:24:07.308Z,77.70
2023-03-28T10:28:30.490Z,79.50
2023-03-28T10:32:32.829Z,77.30
2023-03-28T10:37:00.666Z,75.80
2023-03-28T10:41:28.266Z,74.90
2023-03-28T10:46:00.994Z,79.30
2023-03-28T10:50:37.008Z,77.80
2023-03-28T10:55:09.899Z,75.20
2023-03-28T10:59:37.964Z,77.20
2023-03-28T11:03:55.210Z,76.00
2023-03-28T11:08:34.916Z,76.60
2023-03-28T11:12:58.531Z,75.40
2023-03-28T11:17:20.338Z,73.30
2023-03-28T11:21:37.436Z,73.70
2023-03-28T11:25:42.651Z,74.80
2023-03-28T11:30:32.373Z,73.60
2023-03-28T11:35:18.130Z,68.90
2023-03-28T11:39:45.711Z,68.30
2023-03-28T11:43:54.480Z,69.90
2023-03-28T11:48:12.668Z,70.10
2023-03-28T11:52:35.531Z,72.10
2023-03-28T11:57:00.615Z,68.50
2023-03-28T12:01:29.693Z,70.20
2023-03-28T12:05:36.627Z,69.30
2023-03-28T12:09:57.659Z,71.20
2023-03-28T12:14:33.088Z,73.40
2023-03-28T12:18:51.484Z,71.10
2023-03-28T12:23:22.410Z,72.90
2023-03-28T12:27:57.106Z,75.00
2023-03-28T12:32:42.252Z,74.80
2023-03-28T12:37:12.251Z,75.40
2023-03-28T12:41:23.376Z,70.90
2023-03-28T12:45:38.893Z,70.10
2023-03-28T12:49:58.760Z,69.90
2023-03-28T12:54:07.571Z,69.00
2023-03-28T12:58:12.712Z,70.40
2023-03-28T13:02:51.788Z,71.60
2023-03-28T13:07:12.942Z,71.00
2023-03-28T13:11:39.804Z,69.60
2023-03-28T13:16:09.273Z,71.00
2023-03-28T13:20:26.257Z,72.10
2023-03-28T13:24:29.814Z,66.80
2023-03-28T13:28:51.541Z,65.10
2023-03-28T13:32:59.788Z,68.20
2023-03-28T13:37:25.516Z,68.50
2023-03-28T13:41:42.744Z,65.70
2023-03-28T13:45:44.808Z,67.30
2023-03-28T13:50:04.261Z,68.30
2023-03-28T13:54:09.344Z,69.10
2023-03-28T13:58:13.397Z,69.30
2023-03-28T14:02:31.886Z,66.30
2023-03-28T14:06:40.829Z,67.60
2023-03-28T14:10:45.542Z,67.90
2023-03-28T14:14:57.765Z,70.60
2023-03-28T14:19:03.039Z,69.60
2023-03-28T14:23:06.435Z,67.80
2023-03-28T14:27:13.934Z,69.10
2023-03-28T14:31:32.438Z,69.40
2023-03-28T14:35:36.724Z,66.80
2023-03-28T14:39:39.052Z,67.00
2023-03-28T14:43:41.221Z,68.00
2023-03-28T14:47:44.164Z,65.20
2023-03-28T14:51:53.291Z,67.00
2023-03-28T14:56:02.239Z,65.20
2023-03-28T15:00:12.721Z,67.70
2023-03-28T15:04:16.627Z,68.60
2023-03-28T15:08:30.780Z,69.70
2023-03-28T15:12:36.446Z,69.90
2023-03-28T15:16:44.173Z,72.90
2023-03-28T15:20:52.048Z,69.90
2023-03-28T15:24:56.223Z,70.50
2023-03-28T15:28:58.748Z,69.10
2023-03-28T15:33:04.100Z,69.80
2023-03-28T15:37:07.226Z,69.10
2023-03-28T15:41:19.268Z,71.00
2023-03-28T15:45:21.785Z,70.30
2023-03-28T15:49:24.089Z,70.80
2023-03-28T15:53:29.614Z,71.60
2023-03-28T15:57:31.958Z,72.00
2023-03-28T16:01:34.325Z,68.80
2023-03-28T16:05:37.836Z,71.00
2023-03-28T16:09:43.070Z,71.30
2023-03-28T16:13:46.091Z,71.30
2023-03-28T16:18:06.889Z,71.10
2023-03-28T16:22:21.106Z,71.10
2023-03-28T16:26:23.088Z,70.50
2023-03-28T16:30:45.918Z,69.80
2023-03-28T16:34:48.516Z,71.90
2023-03-28T16:38:50.411Z,71.20
2023-03-28T16:42:52.639Z,70.10
2023-03-28T16:46:55.282Z,69.30
2023-03-28T16:51:00.170Z,70.70
2023-03-28T16:55:01.975Z,72.40
2023-03-28T16:59:05.649Z,72.10
2023-03-28T17:03:07.631Z,72.30
2023-03-28T17:07:09.742Z,71.50
2023-03-28T17:11:12.978Z,72.20
2023-03-28T17:15:14.962Z,73.30
2023-03-28T17:19:19.255Z,73.30
2023-03-28T17:23:21.222Z,73.20
2023-03-28T17:27:23.475Z,74.10
2023-03-28T17:31:25.725Z,75.00
2023-03-28T17:35:27.899Z,76.00
2023-03-28T17:39:30.036Z,75.30
2023-03-28T17:43:32.132Z,75.60
2023-03-28T17:47:34.487Z,75.40
2023-03-28T17:51:37.062Z,75.20
2023-03-28T17:55:39.053Z,75.90
2023-03-28T17:59:41.703Z,76.70
2023-03-28T18:03:45.739Z,77.30
2023-03-28T18:07:58.178Z,78.40
2023-03-28T18:12:00.274Z,79.30
2023-03-28T18:16:04.618Z,78.90
2023-03-28T18:20:09.230Z,79.10
2023-03-28T18:24:11.951Z,80.30
2023-03-28T18:28:14.128Z,80.90
2023-03-28T18:32:16.598Z,79.20
2023-03-28T18:36:18.570Z,80.00
2023-03-28T18:40:20.498Z,78.00
2023-03-28T18:44:22.318Z,78.30
2023-03-28T18:48:24.699Z,79.80
2023-03-28T18:52:28.342Z,80.20
2023-03-28T18:56:32.823Z,80.60
2023-03-28T19:00:34.701Z,80.10
2023-03-28T19:04:37.709Z,81.40
2023-03-28T19:08:40.433Z,81.40
2023-03-28T19:12:42.301Z,82.50
2023-03-28T19:16:44.267Z,83.30
2023-03-28T19:20:50.992Z,82.70
2023-03-28T19:24:53.276Z,83.60
2023-03-28T19:28:55.442Z,82.80
2023-03-28T19:32:57.953Z,84.40
2023-03-28T19:37:00.311Z,83.90
2023-03-28T19:45:07.950Z,84.40
2023-03-28T19:49:11.372Z,84.20
2023-03-28T19:53:13.339Z,85.20
2023-03-28T19:57:15.554Z,85.30
2023-03-28T20:01:18.036Z,84.60
2023-03-28T20:05:19.953Z,84.80
2023-03-28T20:09:22.258Z,85.60
2023-03-28T20:13:24.466Z,85.70
2023-03-28T20:17:26.736Z,84.50
2023-03-28T20:21:28.684Z,84.50
2023-03-28T20:25:33.071Z,85.40
2023-03-28T20:29:36.364Z,85.20
2023-03-28T20:33:38.529Z,85.30
2023-03-28T20:37:40.569Z,85.40
2023-03-28T20:41:43.303Z,85.20
2023-03-28T20:45:49.900Z,84.40
2023-03-28T20:49:56.769Z,84.60
2023-03-28T20:54:00.445Z,86.40
2023-03-28T20:58:02.588Z,86.90
2023-03-28T21:02:05.175Z,88.10
2023-03-28T21:06:07.776Z,88.20
2023-03-28T21:10:10.141Z,88.40
2023-03-28T21:14:13.942Z,88.00
2023-03-28T21:18:16.590Z,87.50
2023-03-28T21:22:20.621Z,87.40
2023-03-28T21:26:23.424Z,88.40
2023-03-28T21:30:25.302Z,87.80
2023-03-28T21:34:33.347Z,88.20
2023-03-28T21:38:35.494Z,88.10
2023-03-28T21:42:37.952Z,88.80
2023-03-28T21:46:39.994Z,88.00
2023-03-28T21:50:42.310Z,87.80
2023-03-28T21:54:44.211Z,88.30
2023-03-28T21:58:46.132Z,89.00
2023-03-28T22:02:48.122Z,91.50
2023-03-28T22:06:50.029Z,90.80
2023-03-28T22:10:58.461Z,89.50
2023-03-28T22:15:01.626Z,89.80
2023-03-28T22:19:05.898Z,88.80
2023-03-28T22:23:08.915Z,89.30
2023-03-28T22:27:10.944Z,88.10
2023-03-28T22:31:13.691Z,90.20
2023-03-28T22:35:15.583Z,90.60
2023-03-28T22:39:17.894Z,90.10
2023-03-28T22:43:19.789Z,88.70
2023-03-28T22:47:21.647Z,88.60
2023-03-28T22:51:27.605Z,89.00
2023-03-28T22:55:29.684Z,87.30
2023-03-28T22:59:36.531Z,87.00
2023-03-28T23:03:38.701Z,86.90
2023-03-28T23:07:43.191Z,87.80
2023-03-28T23:11:45.305Z,87.50
2023-03-28T23:15:47.188Z,88.50
2023-03-28T23:19:50.222Z,86.80
2023-03-28T23:23:53.314Z,87.40
2023-03-28T23:27:55.206Z,88.10
2023-03-28T23:31:57.282Z,87.80
2023-03-28T23:35:59.175Z,88.10
2023-03-28T23:40:01.093Z,84.20
2023-03-28T23:44:03.255Z,86.70
2023-03-28T23:48:06.562Z,88.60
2023-03-28T23:52:09.878Z,90.90
2023-03-28T23:56:11.705Z,91.70
